Time;durP1;ratioP1;P1;durP2;ratioP2;P2;SDS_P1;SDS_P2;PMS_P1;PMS_P2;Temp;Humidity;BMP_temperature;BMP_pressure;BME280_temperature;BME280_humidity;BME280_pressure;Samples;Min_cycle;Max_cycle;Signal;HPM_P1;HPM_P2
2022/07/24 00:00:31;;;;;;;14.75;9.25;;;;;;;;;;5115433;28;20241;-73
2022/07/24 00:02:57;;;;;;;14.15;9.10;;;;;;;;;;5121627;28;20316;-72
2022/07/24 00:05:22;;;;;;;13.80;8.88;;;;;;;;;;5114345;28;20047;-72
2022/07/24 00:07:48;;;;;;;15.00;9.38;;;;;;;;;;5120206;28;20023;-73
2022/07/24 00:10:13;;;;;;;13.52;9.40;;;;;;;;;;5094430;28;20016;-72
2022/07/24 00:12:39;;;;;;;17.27;9.20;;;;;;;;;;5121146;28;20336;-73
2022/07/24 00:15:05;;;;;;;14.90;8.63;;;;;;;;;;5120729;28;20020;-73
2022/07/24 00:17:30;;;;;;;17.90;8.98;;;;;;;;;;5120766;28;20020;-73
2022/07/24 00:19:56;;;;;;;15.30;8.60;;;;;;;;;;5120780;28;20043;-73
2022/07/24 00:22:23;;;;;;;16.40;8.30;;;;;;;;;;5120559;28;20070;-73
2022/07/24 00:24:49;;;;;;;12.82;7.97;;;;;;;;;;5120468;28;20056;-73
2022/07/24 00:27:14;;;;;;;17.80;8.30;;;;;;;;;;5120637;28;20104;-73
2022/07/24 00:29:39;;;;;;;11.07;7.82;;;;;;;;;;5122085;28;20028;-73
2022/07/24 00:32:05;;;;;;;12.00;7.65;;;;;;;;;;5125069;28;20039;-73
2022/07/24 00:34:30;;;;;;;14.52;7.65;;;;;;;;;;5124683;28;20030;-73
2022/07/24 00:36:55;;;;;;;11.90;7.35;;;;;;;;;;5124096;28;20064;-73
2022/07/24 00:39:21;;;;;;;12.70;7.07;;;;;;;;;;5124274;28;20019;-73
2022/07/24 00:41:47;;;;;;;12.02;7.28;;;;;;;;;;5121192;28;20020;-73
2022/07/24 00:44:15;;;;;;;13.35;7.35;;;;;;;;;;5120482;28;20324;-73
2022/07/24 00:46:42;;;;;;;12.77;7.85;;;;;;;;;;5124214;28;20031;-73
2022/07/24 00:49:13;;;;;;;13.90;7.65;;;;;;;;;;5124237;28;20073;-72
2022/07/24 00:51:40;;;;;;;12.23;7.95;;;;;;;;;;5123878;28;20035;-73
2022/07/24 00:54:07;;;;;;;14.05;7.18;;;;;;;;;;5123940;28;20039;-72
2022/07/24 00:56:33;;;;;;;11.90;7.60;;;;;;;;;;5124151;28;20039;-73
2022/07/24 00:59:00;;;;;;;12.75;7.43;;;;;;;;;;5123627;28;20077;-72
2022/07/24 01:01:25;;;;;;;11.45;6.65;;;;;;;;;;5124528;28;20035;-72
2022/07/24 01:03:50;;;;;;;12.93;7.38;;;;;;;;;;5123677;28;20304;-72
2022/07/24 01:06:16;;;;;;;11.82;7.10;;;;;;;;;;5117271;28;20042;-72
2022/07/24 01:08:45;;;;;;;11.82;7.55;;;;;;;;;;5123527;28;20327;-72
2022/07/24 01:11:11;;;;;;;15.15;7.25;;;;;;;;;;5105753;28;20031;-73
2022/07/24 01:13:36;;;;;;;12.10;7.28;;;;;;;;;;5124108;28;20358;-73
2022/07/24 01:16:02;;;;;;;12.02;7.70;;;;;;;;;;5123620;28;20335;-72
2022/07/24 01:18:27;;;;;;;13.70;7.60;;;;;;;;;;5105389;28;20019;-72
2022/07/24 01:20:55;;;;;;;10.73;6.78;;;;;;;;;;5123541;28;20237;-72
2022/07/24 01:23:21;;;;;;;10.77;7.50;;;;;;;;;;5123100;28;20205;-73
2022/07/24 01:25:46;;;;;;;14.80;7.43;;;;;;;;;;5115441;28;20023;-72
2022/07/24 01:28:12;;;;;;;11.57;6.93;;;;;;;;;;5123784;28;20034;-73
2022/07/24 01:30:37;;;;;;;13.68;7.30;;;;;;;;;;5123517;28;20023;-72
2022/07/24 01:33:02;;;;;;;12.18;7.45;;;;;;;;;;5123852;28;20023;-72
2022/07/24 01:35:28;;;;;;;11.05;6.97;;;;;;;;;;5123441;28;20023;-72
2022/07/24 01:37:54;;;;;;;12.20;7.07;;;;;;;;;;5122876;28;20029;-72
2022/07/24 01:40:20;;;;;;;11.18;7.28;;;;;;;;;;5122256;28;20073;-73
2022/07/24 01:42:46;;;;;;;11.88;7.35;;;;;;;;;;5116370;28;20046;-72
2022/07/24 01:45:12;;;;;;;12.95;7.20;;;;;;;;;;5122979;28;20316;-72
2022/07/24 01:47:37;;;;;;;11.73;7.22;;;;;;;;;;5123123;28;20248;-72
2022/07/24 01:50:04;;;;;;;10.55;7.00;;;;;;;;;;5123213;28;20044;-72
2022/07/24 01:52:29;;;;;;;10.43;7.10;;;;;;;;;;5122763;28;20230;-72
2022/07/24 01:54:54;;;;;;;12.13;7.38;;;;;;;;;;5122748;28;20354;-72
2022/07/24 01:57:20;;;;;;;11.77;6.88;;;;;;;;;;5122931;28;20035;-72
2022/07/24 01:59:46;;;;;;;14.07;7.10;;;;;;;;;;5095721;28;20027;-72
2022/07/24 02:02:11;;;;;;;10.35;7.13;;;;;;;;;;5122752;28;20030;-72
2022/07/24 02:04:36;;;;;;;11.05;7.15;;;;;;;;;;5121542;28;20019;-72
2022/07/24 02:07:02;;;;;;;12.45;7.63;;;;;;;;;;5117597;28;20251;-72
2022/07/24 02:09:27;;;;;;;11.00;7.03;;;;;;;;;;5122101;28;20019;-72
2022/07/24 02:11:53;;;;;;;13.88;7.53;;;;;;;;;;5122833;28;20023;-72
2022/07/24 02:14:19;;;;;;;11.63;7.60;;;;;;;;;;5096486;28;20019;-72
2022/07/24 02:16:44;;;;;;;10.88;7.10;;;;;;;;;;5122771;28;20083;-72
2022/07/24 02:19:09;;;;;;;12.27;7.20;;;;;;;;;;5115843;28;20103;-72
2022/07/24 02:21:35;;;;;;;11.35;7.28;;;;;;;;;;5122123;28;20019;-71
2022/07/24 02:24:00;;;;;;;11.48;7.00;;;;;;;;;;5122246;28;20026;-72
2022/07/24 02:26:25;;;;;;;12.75;7.13;;;;;;;;;;5122511;28;21259;-72
2022/07/24 02:28:51;;;;;;;11.02;7.15;;;;;;;;;;5122046;28;20023;-72
2022/07/24 02:31:16;;;;;;;10.23;6.85;;;;;;;;;;5121976;28;20016;-72
2022/07/24 02:33:42;;;;;;;13.10;7.25;;;;;;;;;;5122081;28;20094;-72
2022/07/24 02:36:07;;;;;;;17.55;7.30;;;;;;;;;;5122440;28;20083;-72
2022/07/24 02:38:34;;;;;;;12.13;7.25;;;;;;;;;;5121982;28;20019;-72
2022/07/24 02:40:59;;;;;;;14.15;6.95;;;;;;;;;;5122166;28;20359;-72
2022/07/24 02:43:25;;;;;;;10.43;6.90;;;;;;;;;;5115244;28;20184;-71
2022/07/24 02:45:50;;;;;;;10.55;6.85;;;;;;;;;;5103759;28;20020;-72
2022/07/24 02:48:16;;;;;;;12.95;7.35;;;;;;;;;;5121606;28;20040;-72
2022/07/24 02:50:41;;;;;;;12.70;6.85;;;;;;;;;;5121869;28;20012;-72
2022/07/24 02:53:06;;;;;;;14.35;7.07;;;;;;;;;;5121478;28;20136;-72
2022/07/24 02:55:32;;;;;;;11.63;7.00;;;;;;;;;;5121858;28;20031;-72
2022/07/24 02:57:57;;;;;;;11.80;7.15;;;;;;;;;;5121465;28;20035;-72
2022/07/24 03:00:23;;;;;;;10.30;7.22;;;;;;;;;;5121573;28;20085;-72
2022/07/24 03:02:48;;;;;;;10.10;7.05;;;;;;;;;;5120425;28;20032;-72
2022/07/24 03:05:14;;;;;;;9.85;7.32;;;;;;;;;;5114865;28;20031;-72
2022/07/24 03:07:40;;;;;;;10.45;6.95;;;;;;;;;;5121173;28;20044;-72
2022/07/24 03:10:09;;;;;;;12.15;7.00;;;;;;;;;;5121582;28;20027;-72
2022/07/24 03:12:34;;;;;;;14.50;7.18;;;;;;;;;;5121408;28;20023;-72
2022/07/24 03:15:00;;;;;;;16.17;6.93;;;;;;;;;;5121352;28;20015;-72
2022/07/24 03:17:25;;;;;;;11.45;7.07;;;;;;;;;;5121564;28;20020;-72
2022/07/24 03:19:50;;;;;;;10.75;6.60;;;;;;;;;;5120900;28;20185;-72
2022/07/24 03:22:16;;;;;;;12.48;6.90;;;;;;;;;;5121423;28;20058;-72
2022/07/24 03:24:41;;;;;;;10.45;6.97;;;;;;;;;;5121018;28;20098;-72
2022/07/24 03:27:07;;;;;;;11.88;6.82;;;;;;;;;;5121182;28;20141;-72
2022/07/24 03:29:32;;;;;;;11.13;7.03;;;;;;;;;;5121361;28;20193;-72
2022/07/24 03:31:57;;;;;;;11.63;7.30;;;;;;;;;;5121496;28;20244;-71
2022/07/24 03:34:23;;;;;;;11.57;7.43;;;;;;;;;;5120922;28;20055;-72
2022/07/24 03:36:48;;;;;;;12.57;7.30;;;;;;;;;;5121036;28;20016;-72
2022/07/24 03:39:13;;;;;;;10.68;7.38;;;;;;;;;;5121100;28;20023;-72
2022/07/24 03:41:39;;;;;;;10.93;7.13;;;;;;;;;;5121379;28;20326;-72
2022/07/24 03:44:05;;;;;;;11.60;7.25;;;;;;;;;;5114517;28;20024;-76
2022/07/24 03:46:30;;;;;;;11.57;7.15;;;;;;;;;;5121345;28;20702;-72
2022/07/24 03:48:56;;;;;;;10.70;6.93;;;;;;;;;;5120749;28;20330;-72
2022/07/24 03:51:22;;;;;;;11.55;7.28;;;;;;;;;;5121020;28;20338;-72
2022/07/24 03:53:48;;;;;;;11.85;7.65;;;;;;;;;;5120984;28;20023;-72
2022/07/24 03:56:13;;;;;;;11.05;7.60;;;;;;;;;;5111185;28;20078;-72
2022/07/24 03:58:39;;;;;;;11.30;7.70;;;;;;;;;;5120602;28;20046;-72
2022/07/24 04:01:04;;;;;;;11.13;7.38;;;;;;;;;;5121417;28;20051;-72
2022/07/24 04:03:30;;;;;;;12.90;7.50;;;;;;;;;;5121054;28;20031;-72
2022/07/24 04:05:55;;;;;;;13.70;7.72;;;;;;;;;;5117681;28;20191;-72
2022/07/24 04:08:20;;;;;;;10.10;7.13;;;;;;;;;;5103058;28;20210;-72
2022/07/24 04:10:46;;;;;;;12.45;8.00;;;;;;;;;;5125051;28;20031;-72
2022/07/24 04:13:12;;;;;;;14.40;8.13;;;;;;;;;;5124613;28;20027;-72
2022/07/24 04:15:37;;;;;;;13.18;7.88;;;;;;;;;;5124826;28;20042;-72
2022/07/24 04:18:03;;;;;;;15.23;7.90;;;;;;;;;;5121524;28;20087;-72
2022/07/24 04:20:28;;;;;;;10.57;7.50;;;;;;;;;;5121519;28;20028;-72
2022/07/24 04:22:53;;;;;;;12.50;7.88;;;;;;;;;;5124314;28;20738;-72
2022/07/24 04:25:19;;;;;;;12.70;7.63;;;;;;;;;;5124843;28;20090;-72
2022/07/24 04:27:45;;;;;;;12.63;7.63;;;;;;;;;;5124898;28;20303;-72
2022/07/24 04:30:11;;;;;;;12.05;7.60;;;;;;;;;;5124558;28;20099;-72
2022/07/24 04:32:37;;;;;;;11.98;7.78;;;;;;;;;;5124672;28;20028;-72
2022/07/24 04:35:06;;;;;;;14.48;7.90;;;;;;;;;;5124447;28;20042;-72
2022/07/24 04:37:32;;;;;;;12.30;7.65;;;;;;;;;;5124454;28;20028;-72
2022/07/24 04:39:57;;;;;;;12.00;7.72;;;;;;;;;;5124403;28;20320;-72
2022/07/24 04:42:23;;;;;;;13.82;7.93;;;;;;;;;;5124258;28;20090;-72
2022/07/24 04:44:48;;;;;;;11.95;7.40;;;;;;;;;;5117929;28;20240;-72
2022/07/24 04:47:14;;;;;;;15.10;8.13;;;;;;;;;;5124483;28;20315;-72
2022/07/24 04:49:39;;;;;;;12.85;8.20;;;;;;;;;;5123995;28;20032;-72
2022/07/24 04:52:04;;;;;;;13.05;8.27;;;;;;;;;;5124304;28;20136;-75
2022/07/24 04:54:30;;;;;;;12.50;7.90;;;;;;;;;;5123999;28;20031;-72
2022/07/24 04:56:55;;;;;;;13.93;8.60;;;;;;;;;;5123751;28;20097;-72
2022/07/24 04:59:21;;;;;;;13.23;8.45;;;;;;;;;;5124059;28;20023;-72
2022/07/24 05:01:46;;;;;;;13.88;7.40;;;;;;;;;;5124045;28;20223;-72
2022/07/24 05:04:11;;;;;;;13.45;8.27;;;;;;;;;;5123497;28;20062;-72
2022/07/24 05:06:37;;;;;;;11.32;7.88;;;;;;;;;;5117390;28;20028;-72
2022/07/24 05:09:02;;;;;;;10.70;8.00;;;;;;;;;;5123588;28;20036;-72
2022/07/24 05:11:28;;;;;;;16.10;8.30;;;;;;;;;;5123602;28;20019;-72
2022/07/24 05:13:53;;;;;;;15.38;10.00;;;;;;;;;;5123860;28;20027;-72
2022/07/24 05:16:18;;;;;;;14.38;9.48;;;;;;;;;;5123700;28;20030;-72
2022/07/24 05:18:44;;;;;;;12.60;8.98;;;;;;;;;;5123700;28;20019;-72
2022/07/24 05:21:10;;;;;;;19.95;9.30;;;;;;;;;;5116946;28;20031;-72
2022/07/24 05:23:35;;;;;;;15.48;9.57;;;;;;;;;;5123587;28;20023;-72
2022/07/24 05:26:01;;;;;;;13.82;8.50;;;;;;;;;;5123376;28;20044;-71
2022/07/24 05:28:26;;;;;;;14.15;8.60;;;;;;;;;;5123406;28;20027;-72
2022/07/24 05:30:51;;;;;;;15.95;9.13;;;;;;;;;;5123444;28;20028;-72
2022/07/24 05:33:17;;;;;;;15.00;9.00;;;;;;;;;;5123158;28;20024;-72
2022/07/24 05:35:42;;;;;;;17.25;9.43;;;;;;;;;;5112541;28;20023;-72
2022/07/24 05:38:07;;;;;;;14.60;9.05;;;;;;;;;;5123019;28;20034;-72
2022/07/24 05:40:33;;;;;;;14.07;8.98;;;;;;;;;;5122980;28;20030;-72
2022/07/24 05:42:58;;;;;;;16.90;9.43;;;;;;;;;;5123054;28;20039;-72
2022/07/24 05:45:23;;;;;;;15.65;9.10;;;;;;;;;;5116571;28;20131;-72
2022/07/24 05:47:49;;;;;;;13.02;9.40;;;;;;;;;;5123157;28;20367;-72
2022/07/24 05:50:14;;;;;;;15.45;9.55;;;;;;;;;;5122897;28;20357;-73
2022/07/24 05:52:40;;;;;;;16.98;9.85;;;;;;;;;;5122897;28;20027;-72
2022/07/24 05:55:07;;;;;;;15.50;9.48;;;;;;;;;;5122667;28;20023;-72
2022/07/24 05:57:32;;;;;;;15.00;9.70;;;;;;;;;;5123016;28;20047;-72
2022/07/24 05:59:57;;;;;;;13.13;9.25;;;;;;;;;;5122951;28;20096;-72
2022/07/24 06:02:23;;;;;;;15.57;9.02;;;;;;;;;;5117787;28;20031;-72
2022/07/24 06:04:48;;;;;;;12.85;8.80;;;;;;;;;;5120430;28;20035;-72
2022/07/24 06:07:14;;;;;;;16.88;9.75;;;;;;;;;;5118972;28;20292;-78
2022/07/24 06:09:39;;;;;;;15.50;9.93;;;;;;;;;;5122464;28;20019;-72
2022/07/24 06:12:05;;;;;;;18.48;10.10;;;;;;;;;;5122384;28;20039;-72
2022/07/24 06:14:31;;;;;;;15.70;9.23;;;;;;;;;;5122743;28;20030;-72
2022/07/24 06:16:57;;;;;;;12.20;8.60;;;;;;;;;;5122682;28;20023;-72
2022/07/24 06:19:22;;;;;;;16.98;9.65;;;;;;;;;;5121808;28;20031;-72
2022/07/24 06:21:48;;;;;;;15.82;9.68;;;;;;;;;;5116778;28;20020;-71
2022/07/24 06:24:13;;;;;;;17.55;9.75;;;;;;;;;;5122245;28;20082;-71
2022/07/24 06:26:39;;;;;;;13.10;9.77;;;;;;;;;;5121700;28;20032;-73
2022/07/24 06:29:04;;;;;;;20.38;9.80;;;;;;;;;;5122344;28;20039;-71
2022/07/24 06:31:30;;;;;;;17.40;10.07;;;;;;;;;;5122328;28;20031;-72
2022/07/24 06:33:55;;;;;;;17.70;10.82;;;;;;;;;;5122093;28;20019;-71
2022/07/24 06:36:20;;;;;;;18.52;10.40;;;;;;;;;;5122378;28;20197;-71
2022/07/24 06:38:46;;;;;;;17.13;11.13;;;;;;;;;;5121913;28;20107;-71
2022/07/24 06:41:11;;;;;;;19.45;10.70;;;;;;;;;;5121874;28;20038;-71
2022/07/24 06:43:36;;;;;;;18.05;11.10;;;;;;;;;;5118312;28;20077;-73
2022/07/24 06:46:02;;;;;;;21.15;11.68;;;;;;;;;;5119480;28;20030;-74
2022/07/24 06:48:27;;;;;;;18.33;11.38;;;;;;;;;;5121566;28;20361;-73
2022/07/24 06:50:52;;;;;;;17.42;10.63;;;;;;;;;;5121840;28;20038;-73
2022/07/24 06:53:18;;;;;;;16.38;10.23;;;;;;;;;;5121643;28;20253;-74
2022/07/24 06:55:43;;;;;;;19.55;11.23;;;;;;;;;;5121474;28;20019;-73
2022/07/24 06:58:08;;;;;;;16.13;10.45;;;;;;;;;;5121933;28;20332;-73
2022/07/24 07:00:34;;;;;;;16.95;10.50;;;;;;;;;;5121523;28;20356;-73
2022/07/24 07:02:59;;;;;;;16.55;10.75;;;;;;;;;;5121398;28;20198;-73
2022/07/24 07:05:25;;;;;;;18.20;10.35;;;;;;;;;;5115049;28;20290;-73
2022/07/24 07:07:50;;;;;;;18.88;10.60;;;;;;;;;;5089863;28;20201;-73
2022/07/24 07:10:15;;;;;;;17.95;11.10;;;;;;;;;;5115054;28;20054;-73
2022/07/24 07:12:41;;;;;;;16.67;10.60;;;;;;;;;;5121629;28;20172;-73
2022/07/24 07:15:08;;;;;;;14.27;10.25;;;;;;;;;;5121692;28;20031;-73
2022/07/24 07:17:33;;;;;;;16.40;10.88;;;;;;;;;;5121346;28;20078;-73
2022/07/24 07:19:58;;;;;;;18.77;10.27;;;;;;;;;;5121156;28;20434;-73
2022/07/24 07:22:24;;;;;;;15.05;10.45;;;;;;;;;;5121161;28;20031;-73
2022/07/24 07:24:49;;;;;;;14.98;9.77;;;;;;;;;;5120955;28;20020;-73
2022/07/24 07:27:14;;;;;;;16.23;9.75;;;;;;;;;;5121414;28;20381;-73
2022/07/24 07:29:40;;;;;;;19.85;9.93;;;;;;;;;;5121248;28;20102;-73
2022/07/24 07:32:05;;;;;;;18.80;10.27;;;;;;;;;;5121104;28;20023;-73
2022/07/24 07:34:31;;;;;;;14.10;10.10;;;;;;;;;;5121398;28;20178;-73
2022/07/24 07:36:56;;;;;;;18.35;10.30;;;;;;;;;;5121346;28;20094;-73
2022/07/24 07:39:21;;;;;;;14.13;9.65;;;;;;;;;;5120470;28;20033;-73
2022/07/24 07:41:47;;;;;;;16.60;9.77;;;;;;;;;;5121083;28;20050;-73
2022/07/24 07:44:12;;;;;;;19.13;9.95;;;;;;;;;;5121196;28;20054;-73
2022/07/24 07:46:38;;;;;;;13.88;9.38;;;;;;;;;;5114569;28;20027;-73
2022/07/24 07:49:03;;;;;;;14.43;9.48;;;;;;;;;;5121049;28;20024;-73
2022/07/24 07:51:28;;;;;;;14.68;9.70;;;;;;;;;;5121407;28;20022;-73
2022/07/24 07:53:54;;;;;;;15.52;9.50;;;;;;;;;;5086235;28;20013;-73
2022/07/24 07:56:20;;;;;;;14.23;9.70;;;;;;;;;;5115095;28;20312;-74
2022/07/24 07:58:45;;;;;;;13.65;9.43;;;;;;;;;;5117821;28;20641;-73
2022/07/24 08:01:10;;;;;;;13.13;8.48;;;;;;;;;;5120833;28;20234;-73
2022/07/24 08:03:36;;;;;;;13.35;8.88;;;;;;;;;;5120707;28;20036;-73
2022/07/24 08:06:01;;;;;;;16.00;8.73;;;;;;;;;;5114516;28;20015;-73
2022/07/24 08:08:27;;;;;;;13.35;8.88;;;;;;;;;;5120670;28;20043;-73
2022/07/24 08:10:52;;;;;;;13.13;8.57;;;;;;;;;;5120721;28;20020;-73
2022/07/24 08:13:19;;;;;;;12.98;8.13;;;;;;;;;;5120677;28;20027;-73
2022/07/24 08:15:45;;;;;;;12.30;8.02;;;;;;;;;;5120702;28;20023;-73
2022/07/24 08:18:10;;;;;;;12.32;8.30;;;;;;;;;;5090701;28;20016;-73
2022/07/24 08:20:35;;;;;;;11.82;8.20;;;;;;;;;;5118190;28;20027;-73
2022/07/24 08:23:01;;;;;;;12.48;8.68;;;;;;;;;;5120374;28;20197;-74
2022/07/24 08:25:26;;;;;;;12.02;8.18;;;;;;;;;;5120550;28;20038;-73
2022/07/24 08:27:52;;;;;;;12.45;7.50;;;;;;;;;;5118801;28;20039;-73
2022/07/24 08:30:18;;;;;;;10.93;7.65;;;;;;;;;;5120606;28;20020;-73
2022/07/24 08:32:43;;;;;;;10.82;7.53;;;;;;;;;;5120632;28;20051;-73
2022/07/24 08:35:10;;;;;;;12.55;7.03;;;;;;;;;;5120699;28;20011;-73
2022/07/24 08:37:39;;;;;;;11.45;7.60;;;;;;;;;;5099252;28;20047;-73
2022/07/24 08:40:06;;;;;;;10.52;7.20;;;;;;;;;;5099045;28;20026;-73
2022/07/24 08:42:32;;;;;;;9.43;6.68;;;;;;;;;;5120610;28;20031;-73
2022/07/24 08:44:58;;;;;;;11.13;7.13;;;;;;;;;;5120592;28;20027;-73
2022/07/24 08:47:25;;;;;;;8.65;6.07;;;;;;;;;;5120720;28;20031;-73
2022/07/24 08:49:54;;;;;;;11.57;6.00;;;;;;;;;;5120551;28;20339;-74
2022/07/24 08:52:22;;;;;;;8.00;5.95;;;;;;;;;;5124535;28;20035;-74
2022/07/24 08:54:48;;;;;;;9.10;5.70;;;;;;;;;;5123395;28;20031;-73
2022/07/24 08:57:14;;;;;;;8.98;5.97;;;;;;;;;;5124266;28;20024;-73
2022/07/24 08:59:40;;;;;;;10.38;5.60;;;;;;;;;;5124181;28;20383;-73
2022/07/24 09:02:06;;;;;;;10.77;6.00;;;;;;;;;;5123971;28;20335;-73
2022/07/24 09:04:39;;;;;;;8.00;5.05;;;;;;;;;;5123933;28;20027;-73
2022/07/24 09:07:09;;;;;;;7.40;5.10;;;;;;;;;;5115545;28;20212;-73
2022/07/24 09:09:36;;;;;;;11.07;5.32;;;;;;;;;;5123318;28;20215;-73
2022/07/24 09:12:13;;;;;;;9.75;5.50;;;;;;;;;;5123962;28;20022;-73
2022/07/24 09:14:40;;;;;;;6.50;5.30;;;;;;;;;;5123528;28;20015;-75
2022/07/24 09:17:13;;;;;;;7.10;5.00;;;;;;;;;;5123506;28;20205;-76
2022/07/24 09:19:52;;;;;;;7.13;5.28;;;;;;;;;;5120314;28;20039;-73
2022/07/24 09:22:25;;;;;;;7.68;5.00;;;;;;;;;;5114567;28;20055;-73
2022/07/24 09:25:12;;;;;;;7.55;4.85;;;;;;;;;;5123206;28;20071;-73
2022/07/24 09:27:56;;;;;;;7.82;4.50;;;;;;;;;;5111793;28;20534;-73
2022/07/24 09:30:35;;;;;;;6.50;4.30;;;;;;;;;;5120606;28;20031;-73
2022/07/24 09:33:04;;;;;;;6.95;4.07;;;;;;;;;;5121551;28;20239;-74
2022/07/24 09:35:37;;;;;;;7.72;4.00;;;;;;;;;;5123447;28;20315;-74
2022/07/24 09:38:05;;;;;;;5.78;4.10;;;;;;;;;;5123201;28;20032;-74
2022/07/24 09:40:38;;;;;;;5.63;4.00;;;;;;;;;;5123261;28;20024;-70
2022/07/24 09:43:28;;;;;;;7.43;4.00;;;;;;;;;;5104833;28;20047;-74
2022/07/24 09:46:08;;;;;;;9.05;3.95;;;;;;;;;;5121540;28;20027;-72
2022/07/24 09:48:34;;;;;;;5.53;3.90;;;;;;;;;;5123104;28;20031;-72
2022/07/24 09:51:03;;;;;;;4.78;3.47;;;;;;;;;;5123370;28;20070;-72
2022/07/24 09:53:31;;;;;;;5.22;3.80;;;;;;;;;;5123513;28;20143;-71
2022/07/24 09:56:04;;;;;;;5.75;4.00;;;;;;;;;;5116312;28;20338;-72
2022/07/24 09:58:31;;;;;;;7.93;3.83;;;;;;;;;;5104752;28;20023;-73
2022/07/24 10:00:59;;;;;;;5.93;3.90;;;;;;;;;;5122334;28;20216;-72
2022/07/24 10:03:27;;;;;;;5.88;3.90;;;;;;;;;;5121938;28;20042;-77
2022/07/24 10:05:58;;;;;;;5.00;3.90;;;;;;;;;;5116390;28;20087;-72
2022/07/24 10:08:24;;;;;;;7.30;4.10;;;;;;;;;;5122403;28;20355;-75
2022/07/24 10:10:50;;;;;;;5.55;4.03;;;;;;;;;;5122521;28;20035;-72
2022/07/24 10:13:16;;;;;;;5.03;3.90;;;;;;;;;;5098418;28;20020;-79
2022/07/24 10:16:11;;;;;;;7.75;3.80;;;;;;;;;;5093475;28;20047;-72
2022/07/24 10:18:48;;;;;;;6.57;4.28;;;;;;;;;;5097327;28;20455;-71
2022/07/24 10:21:34;;;;;;;7.63;4.10;;;;;;;;;;5120673;28;20027;-72
2022/07/24 10:24:03;;;;;;;5.93;3.60;;;;;;;;;;5120386;28;20108;-72
2022/07/24 10:26:49;;;;;;;6.90;4.13;;;;;;;;;;5122338;28;20020;-72
2022/07/24 10:29:17;;;;;;;5.90;3.70;;;;;;;;;;5122006;28;20358;-72
2022/07/24 10:32:01;;;;;;;5.10;3.58;;;;;;;;;;5120355;28;20016;-72
2022/07/24 10:34:46;;;;;;;4.25;3.30;;;;;;;;;;5115007;28;20019;-72
2022/07/24 10:37:34;;;;;;;4.75;3.70;;;;;;;;;;5113930;28;20020;-73
2022/07/24 10:40:14;;;;;;;5.45;3.55;;;;;;;;;;5099837;28;20212;-73
2022/07/24 10:43:08;;;;;;;5.22;3.70;;;;;;;;;;5122131;28;20112;-72
2022/07/24 10:46:06;;;;;;;6.35;3.42;;;;;;;;;;5115254;28;20023;-72
2022/07/24 10:48:35;;;;;;;5.40;3.47;;;;;;;;;;5118251;28;20039;-71
2022/07/24 10:51:13;;;;;;;6.10;3.53;;;;;;;;;;5121446;28;20030;-73
2022/07/24 10:53:39;;;;;;;6.50;3.60;;;;;;;;;;5121854;28;20133;-72
2022/07/24 10:56:19;;;;;;;6.50;3.50;;;;;;;;;;5121805;28;20027;-73
2022/07/24 10:59:01;;;;;;;5.10;3.10;;;;;;;;;;5121415;28;20043;-72
2022/07/24 11:01:48;;;;;;;4.95;3.42;;;;;;;;;;5112836;28;20222;-72
2022/07/24 11:04:19;;;;;;;4.38;3.50;;;;;;;;;;5121552;28;20031;-72
2022/07/24 11:06:48;;;;;;;5.47;3.75;;;;;;;;;;5114723;28;20411;-72
2022/07/24 11:09:15;;;;;;;4.80;3.40;;;;;;;;;;5121119;28;20080;-72
2022/07/24 11:11:52;;;;;;;5.90;3.70;;;;;;;;;;5121697;28;20360;-72
2022/07/24 11:14:40;;;;;;;5.63;3.70;;;;;;;;;;5121403;28;20035;-71
2022/07/24 11:17:40;;;;;;;4.82;3.50;;;;;;;;;;5111635;28;20012;-73
2022/07/24 11:20:13;;;;;;;6.22;3.70;;;;;;;;;;5114934;28;20073;-72
2022/07/24 11:22:40;;;;;;;9.45;3.95;;;;;;;;;;5114615;28;20023;-71
2022/07/24 11:25:07;;;;;;;6.15;3.60;;;;;;;;;;5120881;28;20023;-72
2022/07/24 11:27:52;;;;;;;5.65;3.50;;;;;;;;;;5114871;28;20024;-72
2022/07/24 11:30:18;;;;;;;;;;;;;;;;;;5110946;28;20313;-72
2022/07/24 11:32:44;;;;;;;6.82;3.53;;;;;;;;;;5121628;28;19904;-72
2022/07/24 11:35:10;;;;;;;5.57;3.30;;;;;;;;;;5121343;28;20030;-72
2022/07/24 11:37:37;;;;;;;4.40;3.20;;;;;;;;;;5121153;28;20023;-72
2022/07/24 11:40:06;;;;;;;5.65;3.30;;;;;;;;;;5120723;28;20020;-71
2022/07/24 11:42:31;;;;;;;4.70;3.50;;;;;;;;;;5121239;28;20095;-71
2022/07/24 11:44:57;;;;;;;4.85;3.40;;;;;;;;;;5120830;28;20043;-71
2022/07/24 11:47:26;;;;;;;4.75;3.30;;;;;;;;;;5114715;28;20035;-72
2022/07/24 11:49:53;;;;;;;4.18;3.35;;;;;;;;;;5121343;28;20080;-72
2022/07/24 11:52:23;;;;;;;4.45;3.45;;;;;;;;;;5120976;28;20084;-71
2022/07/24 11:54:50;;;;;;;5.03;3.42;;;;;;;;;;5120922;28;20024;-71
2022/07/24 11:57:27;;;;;;;5.28;3.67;;;;;;;;;;5120839;28;20063;-71
2022/07/24 11:59:54;;;;;;;5.13;3.38;;;;;;;;;;5120729;28;20140;-71
2022/07/24 12:02:20;;;;;;;8.00;3.60;;;;;;;;;;5120919;28;20232;-72
2022/07/24 12:04:48;;;;;;;4.55;3.33;;;;;;;;;;5119794;28;20024;-72
2022/07/24 12:07:19;;;;;;;4.90;3.50;;;;;;;;;;5115910;28;20028;-72
2022/07/24 12:09:51;;;;;;;7.70;3.60;;;;;;;;;;5120860;28;20020;-72
2022/07/24 12:12:19;;;;;;;5.10;3.13;;;;;;;;;;5120824;28;20028;-72
2022/07/24 12:14:45;;;;;;;3.88;3.10;;;;;;;;;;5120659;28;20039;-71
2022/07/24 12:17:10;;;;;;;4.75;3.20;;;;;;;;;;5120880;28;20312;-71
2022/07/24 12:19:35;;;;;;;3.83;3.10;;;;;;;;;;5120773;28;20039;-71
2022/07/24 12:22:02;;;;;;;5.65;3.10;;;;;;;;;;5114021;28;20054;-72
2022/07/24 12:24:30;;;;;;;5.03;3.10;;;;;;;;;;5120474;28;20023;-72
2022/07/24 12:26:58;;;;;;;5.18;3.40;;;;;;;;;;5124632;28;20392;-72
2022/07/24 12:29:26;;;;;;;5.95;3.70;;;;;;;;;;5124493;28;20032;-72
2022/07/24 12:32:17;;;;;;;5.53;3.80;;;;;;;;;;5125103;28;20062;-72
2022/07/24 12:34:44;;;;;;;4.47;3.60;;;;;;;;;;5123214;28;20042;-72
2022/07/24 12:37:19;;;;;;;5.43;3.35;;;;;;;;;;5122619;28;20215;-72
2022/07/24 12:39:49;;;;;;;4.95;3.20;;;;;;;;;;5124277;28;20392;-71
2022/07/24 12:42:15;;;;;;;4.57;3.10;;;;;;;;;;5124177;28;20028;-72
2022/07/24 12:44:43;;;;;;;5.75;3.47;;;;;;;;;;5124525;28;20069;-71
2022/07/24 12:47:08;;;;;;;5.40;3.50;;;;;;;;;;5119462;28;20315;-71
2022/07/24 12:49:41;;;;;;;7.00;3.22;;;;;;;;;;5122249;28;20055;-72
2022/07/24 12:52:25;;;;;;;4.95;3.30;;;;;;;;;;5124276;28;20023;-71
2022/07/24 12:54:51;;;;;;;6.38;3.58;;;;;;;;;;5123907;28;20323;-71
2022/07/24 12:57:21;;;;;;;6.05;3.40;;;;;;;;;;5123993;28;20064;-71
2022/07/24 12:59:48;;;;;;;4.65;3.10;;;;;;;;;;5124191;28;20152;-71
2022/07/24 13:02:24;;;;;;;4.95;3.20;;;;;;;;;;5123932;28;20028;-72
2022/07/24 13:04:52;;;;;;;7.22;3.35;;;;;;;;;;5122127;28;20116;-72
2022/07/24 13:07:19;;;;;;;4.75;3.60;;;;;;;;;;5119661;28;20047;-72
2022/07/24 13:09:45;;;;;;;5.43;3.90;;;;;;;;;;5123684;28;20043;-72
2022/07/24 13:12:11;;;;;;;5.03;3.60;;;;;;;;;;5123474;28;20081;-72
2022/07/24 13:14:38;;;;;;;4.65;3.42;;;;;;;;;;5123988;28;20060;-71
2022/07/24 13:17:09;;;;;;;4.53;3.20;;;;;;;;;;5123839;28;20035;-72
2022/07/24 13:19:36;;;;;;;5.55;3.30;;;;;;;;;;5123411;28;20019;-72
2022/07/24 13:22:01;;;;;;;4.63;3.20;;;;;;;;;;5123840;28;20019;-73
2022/07/24 13:24:26;;;;;;;5.35;3.50;;;;;;;;;;5116680;28;20092;-72
2022/07/24 13:26:52;;;;;;;6.82;3.58;;;;;;;;;;5123420;28;20027;-72
2022/07/24 13:29:17;;;;;;;5.68;3.80;;;;;;;;;;5123730;28;20350;-72
2022/07/24 13:31:43;;;;;;;5.90;3.42;;;;;;;;;;5121666;28;20028;-72
2022/07/24 13:34:09;;;;;;;4.70;3.40;;;;;;;;;;5123351;28;20034;-72
2022/07/24 13:36:35;;;;;;;5.80;3.30;;;;;;;;;;5123447;28;20027;-73
2022/07/24 13:39:03;;;;;;;4.57;3.33;;;;;;;;;;5123209;28;20058;-72
2022/07/24 13:41:28;;;;;;;5.15;3.53;;;;;;;;;;5122998;28;20024;-72
2022/07/24 13:43:54;;;;;;;4.25;3.53;;;;;;;;;;5123174;28;20019;-72
2022/07/24 13:46:19;;;;;;;4.32;3.50;;;;;;;;;;5123372;28;20242;-77
2022/07/24 13:48:45;;;;;;;4.75;3.92;;;;;;;;;;5116343;28;20048;-71
2022/07/24 13:51:11;;;;;;;5.25;3.40;;;;;;;;;;5123345;28;20034;-72
2022/07/24 13:53:36;;;;;;;4.53;3.38;;;;;;;;;;5122582;28;20096;-71
2022/07/24 13:56:05;;;;;;;5.60;3.33;;;;;;;;;;5122928;28;20069;-72
2022/07/24 13:58:31;;;;;;;4.40;3.38;;;;;;;;;;5122897;28;20034;-72
2022/07/24 14:00:56;;;;;;;4.45;3.50;;;;;;;;;;5123195;28;20023;-72
2022/07/24 14:03:22;;;;;;;6.13;3.45;;;;;;;;;;5122869;28;20215;-72
2022/07/24 14:05:47;;;;;;;4.75;3.40;;;;;;;;;;5119868;28;20027;-72
2022/07/24 14:08:12;;;;;;;5.57;3.22;;;;;;;;;;5122850;28;20149;-72
2022/07/24 14:10:38;;;;;;;7.22;3.55;;;;;;;;;;5122854;28;20043;-72
2022/07/24 14:13:03;;;;;;;5.90;3.67;;;;;;;;;;5122582;28;20031;-71
2022/07/24 14:15:29;;;;;;;5.15;3.45;;;;;;;;;;5122691;28;20351;-71
2022/07/24 14:17:55;;;;;;;4.25;3.40;;;;;;;;;;5122647;28;20110;-72
2022/07/24 14:20:21;;;;;;;5.40;3.45;;;;;;;;;;5122685;28;20199;-76
2022/07/24 14:22:46;;;;;;;6.32;3.63;;;;;;;;;;5122428;28;20099;-72
2022/07/24 14:25:11;;;;;;;4.20;3.60;;;;;;;;;;5122338;28;20023;-72
2022/07/24 14:27:38;;;;;;;4.57;3.50;;;;;;;;;;5122337;28;20208;-73
2022/07/24 14:30:05;;;;;;;5.85;3.55;;;;;;;;;;5121285;28;20324;-72
2022/07/24 14:32:30;;;;;;;4.53;3.45;;;;;;;;;;5122449;28;20137;-72
2022/07/24 14:34:55;;;;;;;4.85;3.65;;;;;;;;;;5121806;28;20016;-72